Time;durP1;ratioP1;P1;durP2;ratioP2;P2;SDS_P1;SDS_P2;PMS_P1;PMS_P2;Temp;Humidity;BMP_temperature;BMP_pressure;BME280_temperature;BME280_humidity;BME280_pressure;Samples;Min_cycle;Max_cycle;Signal;HPM_P1;HPM_P2
2022/03/21 04:00:07;;;;;;;4.68;3.67;;;15.80;49.50;;;;;;6123467;22;45928;31
2022/03/21 04:03:44;;;;;;;5.18;3.70;;;15.80;49.50;;;;;;4921094;28;45367;-60
2022/03/21 04:05:21;;;;;;;4.28;3.83;;;15.80;49.50;;;;;;4949003;28;44957;-56
2022/03/21 04:07:47;;;;;;;4.25;3.60;;;15.80;49.60;;;;;;4949409;28;46423;-56
2022/03/21 04:10:13;;;;;;;4.43;3.60;;;15.80;49.60;;;;;;4950804;28;45178;-53
2022/03/21 04:12:39;;;;;;;5.00;3.67;;;15.80;49.60;;;;;;4976558;28;45119;-58
2022/03/21 04:15:05;;;;;;;4.05;3.50;;;15.80;49.60;;;;;;4964576;28;45415;-56
2022/03/21 04:17:31;;;;;;;5.00;3.85;;;15.80;49.60;;;;;;4982048;28;46219;-59
2022/03/21 04:19:56;;;;;;;4.47;3.95;;;15.80;49.60;;;;;;4978274;28;44709;-56
2022/03/21 04:22:22;;;;;;;3.92;3.53;;;15.80;49.60;;;;;;4960962;28;45598;-57
2022/03/21 04:24:47;;;;;;;4.47;3.53;;;15.80;49.60;;;;;;4982674;28;44694;-57
2022/03/21 04:27:13;;;;;;;4.85;3.92;;;15.80;49.60;;;;;;4984011;28;45235;-54
2022/03/21 04:29:39;;;;;;;4.60;3.88;;;15.80;49.60;;;;;;4982980;28;45547;-54
2022/03/21 04:32:05;;;;;;;4.65;3.85;;;15.80;49.60;;;;;;4975263;28;45459;-58
2022/03/21 04:34:30;;;;;;;4.53;3.47;;;15.80;49.60;;;;;;4972485;28;45495;-58
2022/03/21 04:36:56;;;;;;;4.35;3.78;;;15.70;49.50;;;;;;4971443;28;45900;-55
2022/03/21 04:39:21;;;;;;;4.22;3.22;;;15.70;49.60;;;;;;4979499;28;45203;-58
2022/03/21 04:41:47;;;;;;;4.43;3.70;;;15.70;49.60;;;;;;4964806;28;45255;-55
2022/03/21 04:44:12;;;;;;;5.05;3.70;;;15.70;49.60;;;;;;4939877;28;45481;-58
2022/03/21 04:46:38;;;;;;;4.00;3.17;;;15.70;49.60;;;;;;4976671;28;45433;-58
2022/03/21 04:49:03;;;;;;;4.03;3.60;;;15.70;49.60;;;;;;4979003;28;44606;-56
2022/03/21 04:51:29;;;;;;;3.58;3.05;;;15.70;49.70;;;;;;4976469;28;45434;-57
2022/03/21 04:53:55;;;;;;;4.93;3.92;;;15.70;49.60;;;;;;4965771;28;45253;-58
2022/03/21 04:56:21;;;;;;;4.15;3.58;;;15.70;49.70;;;;;;4976740;28;46876;-56
2022/03/21 04:58:47;;;;;;;3.92;3.50;;;15.70;49.70;;;;;;4960623;28;45488;-56
2022/03/21 05:01:12;;;;;;;5.38;3.65;;;15.70;49.70;;;;;;4967112;28;44693;-58
2022/03/21 05:03:38;;;;;;;5.72;3.83;;;15.70;49.70;;;;;;4957964;28;45164;-57
2022/03/21 05:06:05;;;;;;;4.25;3.50;;;15.70;49.70;;;;;;4973168;28;45863;-55
2022/03/21 05:08:31;;;;;;;4.72;3.63;;;15.70;49.70;;;;;;4963701;28;45243;-55
2022/03/21 05:10:57;;;;;;;4.57;3.72;;;15.70;49.70;;;;;;4970671;28;45608;-56
2022/03/21 05:13:22;;;;;;;4.28;3.63;;;15.70;49.70;;;;;;4975454;28;44898;-59
2022/03/21 05:15:49;;;;;;;4.18;3.60;;;15.60;49.70;;;;;;4977587;28;46182;-54
2022/03/21 05:18:16;;;;;;;4.35;3.45;;;15.70;49.70;;;;;;4968619;28;44861;-54
2022/03/21 05:20:42;;;;;;;5.00;4.05;;;15.70;49.70;;;;;;4987383;28;45555;-59
2022/03/21 05:31:21;;;;;;;4.28;3.50;;;15.60;49.70;;;;;;4972526;28;45202;-58
2022/03/21 05:36:30;;;;;;;4.57;3.45;;;15.60;49.70;;;;;;4976091;28;45931;-57
2022/03/21 05:38:56;;;;;;;5.03;3.78;;;15.60;49.70;;;;;;4976026;28;44626;-58
2022/03/21 05:41:22;;;;;;;3.83;3.42;;;15.60;49.70;;;;;;4978993;28;45606;-55
2022/03/21 05:43:49;;;;;;;4.63;3.22;;;15.60;49.70;;;;;;4957833;28;45144;-58
2022/03/21 05:46:15;;;;;;;4.65;3.45;;;15.70;49.60;;;;;;4973821;28;45474;-55
2022/03/21 05:51:33;;;;;;;3.97;3.50;;;15.80;49.20;;;;;;4975093;28;44677;-56
2022/03/21 05:54:00;;;;;;;5.10;3.80;;;15.90;49.10;;;;;;4956426;28;44929;-60
2022/03/21 05:56:27;;;;;;;3.90;3.45;;;15.90;49.00;;;;;;4975215;28;45283;-55
2022/03/21 05:58:53;;;;;;;4.00;3.35;;;15.90;48.90;;;;;;4974760;28;45565;-57
2022/03/21 06:01:22;;;;;;;3.78;3.35;;;16.00;48.90;;;;;;4957174;28;44900;-54
2022/03/21 06:03:53;;;;;;;3.75;3.35;;;16.00;48.70;;;;;;4976444;28;45368;-59
2022/03/21 06:06:20;;;;;;;4.72;3.97;;;16.00;48.60;;;;;;4958511;28;46183;-57
2022/03/21 06:08:46;;;;;;;4.57;3.95;;;16.10;48.30;;;;;;4959584;28;45185;-55
2022/03/21 06:11:12;;;;;;;5.18;4.00;;;16.20;48.20;;;;;;4978461;28;45254;-56
2022/03/21 06:13:39;;;;;;;3.95;3.55;;;16.30;48.00;;;;;;4978393;28;45652;-59
2022/03/21 06:16:06;;;;;;;4.20;3.55;;;16.20;48.20;;;;;;4974569;28;46058;-56
2022/03/21 06:18:32;;;;;;;4.35;3.63;;;16.00;48.50;;;;;;4957590;28;45389;-57
2022/03/21 06:20:59;;;;;;;4.90;3.72;;;15.90;48.80;;;;;;4972879;28;44759;-55
2022/03/21 06:23:25;;;;;;;3.78;3.22;;;15.80;48.90;;;;;;4957041;28;45505;-57
2022/03/21 06:25:53;;;;;;;4.18;3.50;;;15.80;49.10;;;;;;4976269;28;45959;-55
2022/03/21 06:28:20;;;;;;;5.07;3.92;;;15.80;49.10;;;;;;4957135;28;45259;-58
2022/03/21 06:30:45;;;;;;;4.13;3.63;;;15.70;49.20;;;;;;4957377;28;45274;-56
2022/03/21 06:33:11;;;;;;;4.72;3.53;;;15.70;49.20;;;;;;4976702;28;44681;-54
2022/03/21 06:35:36;;;;;;;4.32;3.72;;;15.70;49.20;;;;;;4958500;28;47339;-58
2022/03/21 06:38:02;;;;;;;5.32;3.55;;;15.70;49.20;;;;;;4976387;28;45376;-58
2022/03/21 06:40:29;;;;;;;3.97;3.20;;;15.70;49.30;;;;;;4964232;28;45290;-57
2022/03/21 06:42:55;;;;;;;4.80;3.58;;;15.70;49.30;;;;;;4967866;28;45259;-58
2022/03/21 06:45:21;;;;;;;5.10;4.07;;;15.70;49.20;;;;;;4968004;28;46217;-59
2022/03/21 06:47:47;;;;;;;5.00;4.07;;;15.70;49.30;;;;;;4967343;28;45080;-55
2022/03/21 06:50:12;;;;;;;;;;;15.70;49.20;;;;;;4956071;28;45533;-59
2022/03/21 06:52:39;;;;;;;3.50;3.20;;;15.70;49.30;;;;;;4976242;28;45508;-52
2022/03/21 06:55:06;;;;;;;3.85;3.45;;;15.70;49.30;;;;;;4958096;28;45465;-58
2022/03/21 06:57:31;;;;;;;4.22;3.40;;;15.80;49.20;;;;;;4958091;28;45192;-55
2022/03/21 06:59:57;;;;;;;3.65;3.20;;;15.90;49.10;;;;;;4975984;28;45451;-58
2022/03/21 07:02:23;;;;;;;3.40;3.08;;;16.00;49.10;;;;;;4975093;28;44811;-57
2022/03/21 07:04:49;;;;;;;3.95;3.40;;;16.10;48.90;;;;;;4955975;28;46114;-59
2022/03/21 07:07:14;;;;;;;4.55;3.58;;;16.20;48.80;;;;;;4973678;28;45537;-56
2022/03/21 07:09:40;;;;;;;3.72;3.03;;;16.40;48.70;;;;;;4975734;28;45128;-53
2022/03/21 07:12:06;;;;;;;4.40;3.35;;;16.50;48.60;;;;;;4976098;28;45401;-58
2022/03/21 07:14:32;;;;;;;3.97;3.05;;;16.60;48.60;;;;;;4975692;28;45477;-59
2022/03/21 07:16:58;;;;;;;3.65;3.35;;;16.70;48.30;;;;;;4957513;28;44760;-57
2022/03/21 07:19:24;;;;;;;3.92;3.50;;;16.80;48.20;;;;;;4974775;28;45229;-55
2022/03/21 07:21:49;;;;;;;3.70;3.00;;;16.90;48.10;;;;;;4975539;28;44868;-53
2022/03/21 07:24:15;;;;;;;3.30;3.00;;;17.00;48.00;;;;;;4967607;28;46382;-55
2022/03/21 07:26:40;;;;;;;3.38;3.08;;;17.20;47.90;;;;;;4975820;28;44772;-57
2022/03/21 07:29:06;;;;;;;3.58;3.20;;;17.30;47.80;;;;;;4956597;28;45569;-59
2022/03/21 07:31:33;;;;;;;3.20;2.90;;;17.40;47.60;;;;;;4974851;28;45247;-55
2022/03/21 07:33:59;;;;;;;3.60;2.85;;;17.50;47.60;;;;;;4975185;28;46468;-58
2022/03/21 07:36:24;;;;;;;2.97;2.67;;;17.60;47.50;;;;;;4943866;28;45305;-60
2022/03/21 07:38:50;;;;;;;3.55;3.10;;;17.80;47.40;;;;;;4974317;28;44927;-57
2022/03/21 07:41:15;;;;;;;3.75;3.17;;;17.90;47.30;;;;;;4957286;28;44890;-58
2022/03/21 07:43:41;;;;;;;3.45;2.97;;;18.00;47.30;;;;;;4975465;28;46276;-55
2022/03/21 07:48:51;;;;;;;3.40;2.83;;;18.20;47.00;;;;;;4976342;28;44999;-59
2022/03/21 07:51:17;;;;;;;3.15;2.45;;;18.30;46.90;;;;;;4977958;28;44942;-55
2022/03/21 07:53:42;;;;;;;4.00;2.88;;;18.50;46.80;;;;;;4977955;28;45585;-54
2022/03/21 07:56:09;;;;;;;3.08;2.78;;;18.60;46.70;;;;;;4978476;28;45561;-58
2022/03/21 07:58:35;;;;;;;3.80;2.78;;;18.70;46.60;;;;;;4959861;28;45196;-56
2022/03/21 08:01:01;;;;;;;3.00;2.55;;;18.80;46.50;;;;;;4953160;28;45381;-54
2022/03/21 08:03:27;;;;;;;2.83;2.53;;;18.90;46.50;;;;;;4972822;28;45656;-56
2022/03/21 08:05:53;;;;;;;2.60;2.40;;;19.00;46.30;;;;;;4961161;28;45587;-55
2022/03/21 08:08:20;;;;;;;3.08;2.70;;;19.10;46.30;;;;;;4980608;28;44623;-57
2022/03/21 08:10:49;;;;;;;2.42;2.22;;;19.20;46.20;;;;;;4977144;28;45112;-52
2022/03/21 08:13:19;;;;;;;3.05;2.75;;;19.40;46.10;;;;;;4978921;28;46025;-54
2022/03/21 08:15:45;;;;;;;3.53;2.83;;;19.40;46.00;;;;;;4964282;28;45346;-56
2022/03/21 08:18:12;;;;;;;3.25;2.42;;;19.50;45.90;;;;;;4984435;28;45318;-57
2022/03/21 08:20:39;;;;;;;2.50;2.30;;;19.60;45.80;;;;;;4980447;28;45597;-56
2022/03/21 08:23:10;;;;;;;3.08;2.58;;;19.80;45.80;;;;;;4980585;28;45834;-58
2022/03/21 08:25:36;;;;;;;2.85;2.63;;;19.90;45.60;;;;;;4980860;28;44918;-53
2022/03/21 08:28:02;;;;;;;2.88;2.53;;;20.00;45.60;;;;;;4982728;28;44694;-57
2022/03/21 08:30:32;;;;;;;2.80;2.50;;;20.10;45.50;;;;;;4984293;28;44775;-56
2022/03/21 08:32:58;;;;;;;2.47;2.28;;;20.20;45.50;;;;;;4968869;28;45711;-55
2022/03/21 08:35:24;;;;;;;2.75;2.45;;;20.30;45.30;;;;;;4980116;28;45113;-58
2022/03/21 08:37:49;;;;;;;2.67;2.40;;;20.40;45.30;;;;;;4983366;28;45482;-55
2022/03/21 08:40:15;;;;;;;2.38;2.17;;;20.50;45.20;;;;;;4988448;28;45496;-57
2022/03/21 08:42:40;;;;;;;6.72;2.40;;;20.50;45.00;;;;;;4982111;28;47169;-58
2022/03/21 08:45:07;;;;;;;2.55;2.20;;;20.60;45.00;;;;;;4978389;28;45128;-56
2022/03/21 08:47:33;;;;;;;2.20;2.00;;;20.80;45.00;;;;;;4978161;28;45323;-56
2022/03/21 08:49:58;;;;;;;2.88;2.33;;;20.80;45.40;;;;;;4978006;28;45432;-52
2022/03/21 08:52:24;;;;;;;2.75;2.30;;;20.90;44.80;;;;;;4977094;28;46699;-56
2022/03/21 08:54:49;;;;;;;2.10;1.90;;;21.00;44.70;;;;;;4977411;28;45288;-55
2022/03/21 08:57:15;;;;;;;2.40;1.90;;;21.10;44.60;;;;;;4976672;28;45183;-55
2022/03/21 08:59:40;;;;;;;2.80;2.05;;;21.20;44.50;;;;;;4977477;28;45232;-58
2022/03/21 09:02:08;;;;;;;1.90;1.73;;;21.30;44.50;;;;;;4975997;28;45432;-60
2022/03/21 09:04:35;;;;;;;1.77;1.67;;;21.40;44.40;;;;;;4973021;28;44937;-56
2022/03/21 09:07:01;;;;;;;3.40;2.30;;;21.50;44.30;;;;;;4977507;28;45469;-58
2022/03/21 09:09:26;;;;;;;2.53;2.22;;;21.60;44.30;;;;;;4977495;28;45068;-58
2022/03/21 09:11:52;;;;;;;2.78;1.70;;;21.70;44.10;;;;;;4974619;28;45423;-59
2022/03/21 09:14:18;;;;;;;2.38;2.10;;;21.80;44.10;;;;;;4977130;28;46141;-56
2022/03/21 09:16:43;;;;;;;3.30;2.38;;;21.90;44.00;;;;;;4972664;28;45268;-55
2022/03/21 09:19:09;;;;;;;2.20;2.00;;;21.90;43.90;;;;;;4981033;28;44959;-54
2022/03/21 09:21:35;;;;;;;2.20;1.98;;;22.00;43.80;;;;;;4972025;28;45841;-54
2022/03/21 09:24:01;;;;;;;2.17;1.98;;;22.10;43.80;;;;;;4976047;28;45167;-59
2022/03/21 09:26:27;;;;;;;1.88;1.70;;;22.20;43.80;;;;;;4977580;28;45521;-58
2022/03/21 09:28:59;;;;;;;2.22;1.75;;;22.30;43.70;;;;;;4976620;28;45030;-53
2022/03/21 09:31:26;;;;;;;1.98;1.85;;;22.40;43.60;;;;;;4976051;28;45580;-56
2022/03/21 09:33:52;;;;;;;3.75;1.83;;;22.40;43.50;;;;;;4955089;28;45592;-56
2022/03/21 09:36:17;;;;;;;2.70;1.90;;;22.50;43.50;;;;;;4975903;28;45423;-57
2022/03/21 09:38:43;;;;;;;2.20;1.98;;;22.60;43.40;;;;;;4976376;28;45193;-55
2022/03/21 09:41:12;;;;;;;2.10;1.90;;;22.60;43.40;;;;;;4976662;28;45185;-54
2022/03/21 09:43:39;;;;;;;2.00;1.80;;;22.70;43.40;;;;;;4943124;28;44856;-55
2022/03/21 09:46:04;;;;;;;2.03;1.83;;;22.80;43.30;;;;;;4944118;28;45257;-54
2022/03/21 09:48:30;;;;;;;2.50;1.80;;;22.80;43.20;;;;;;4947269;28;45223;-56
2022/03/21 09:50:56;;;;;;;4.47;2.20;;;22.90;43.20;;;;;;4975041;28;45957;-56
2022/03/21 09:53:22;;;;;;;1.85;1.63;;;23.00;43.10;;;;;;4976050;28;45616;-53
2022/03/21 09:55:48;;;;;;;3.95;1.85;;;23.00;43.00;;;;;;4976287;28;45215;-57
2022/03/21 09:58:13;;;;;;;2.25;1.70;;;23.10;43.00;;;;;;4974927;28;44984;-56
2022/03/21 10:00:40;;;;;;;3.10;1.80;;;23.10;43.00;;;;;;4973032;28;47128;-57
2022/03/21 10:03:05;;;;;;;2.13;1.80;;;23.20;42.90;;;;;;4972498;28;45170;-58
2022/03/21 10:05:44;;;;;;;1.88;1.67;;;23.30;43.00;;;;;;4975404;28;45188;-55
2022/03/21 10:08:22;;;;;;;2.55;1.80;;;23.30;42.60;;;;;;4973289;28;45119;-55
2022/03/21 10:10:51;;;;;;;2.00;1.80;;;23.30;42.80;;;;;;4956751;28;45318;-53
2022/03/21 10:13:21;;;;;;;3.58;1.63;;;23.40;42.60;;;;;;4953105;28;45578;-56
2022/03/21 10:15:47;;;;;;;2.00;1.80;;;23.40;42.60;;;;;;4976609;28;45221;-58
2022/03/21 10:18:12;;;;;;;1.95;1.75;;;23.50;42.70;;;;;;4978035;28;45182;-55
2022/03/21 10:20:39;;;;;;;2.03;1.85;;;23.50;42.60;;;;;;4961768;28;46163;-58
2022/03/21 10:23:22;;;;;;;1.92;1.60;;;23.60;42.60;;;;;;4978578;28;44629;-57
2022/03/21 10:25:47;;;;;;;5.22;1.75;;;23.60;42.10;;;;;;4980413;28;45273;-57
2022/03/21 10:28:33;;;;;;;1.85;1.70;;;23.60;42.50;;;;;;4960853;28;45087;-57
2022/03/21 10:31:00;;;;;;;2.17;1.73;;;23.80;42.10;;;;;;4968212;28;46115;-55
2022/03/21 10:33:25;;;;;;;2.50;1.70;;;23.80;42.50;;;;;;4975873;28;44762;-56
2022/03/21 10:35:51;;;;;;;3.92;1.70;;;23.80;42.40;;;;;;4976715;28;45636;-56
2022/03/21 10:38:30;;;;;;;2.88;1.70;;;23.90;42.50;;;;;;4959892;28;45496;-57
2022/03/21 10:40:56;;;;;;;2.03;1.83;;;23.90;42.10;;;;;;4959024;28;46822;-55
2022/03/21 10:43:22;;;;;;;1.70;1.60;;;23.90;42.40;;;;;;4944038;28;45525;-53
2022/03/21 10:45:50;;;;;;;1.92;1.60;;;23.90;42.30;;;;;;4977425;28;45520;-56
2022/03/21 10:48:17;;;;;;;3.92;1.70;;;24.00;42.40;;;;;;4977476;28;45168;-57
2022/03/21 10:50:46;;;;;;;2.30;1.75;;;24.00;42.30;;;;;;4975832;28;46094;-57
2022/03/21 10:53:15;;;;;;;1.83;1.48;;;24.10;42.30;;;;;;4975437;28;45259;-58
2022/03/21 10:55:46;;;;;;;1.77;1.30;;;24.10;42.20;;;;;;4976416;28;44976;-56
2022/03/21 10:58:12;;;;;;;1.70;1.60;;;24.10;42.20;;;;;;4976306;28;45245;-57
2022/03/21 11:00:38;;;;;;;3.88;1.67;;;24.20;42.20;;;;;;4975564;28;46136;-53
2022/03/21 11:03:09;;;;;;;2.13;1.45;;;24.20;42.20;;;;;;4976550;28;45203;-56
2022/03/21 11:05:39;;;;;;;1.70;1.60;;;24.20;42.10;;;;;;4957263;28;45601;-58
2022/03/21 11:08:05;;;;;;;2.08;1.50;;;24.30;42.00;;;;;;4974462;28;45010;-57
2022/03/21 11:10:31;;;;;;;1.23;1.13;;;24.30;42.10;;;;;;4972006;28;46098;-56
2022/03/21 11:12:58;;;;;;;2.00;1.70;;;24.30;42.00;;;;;;4952689;28;45304;-55
2022/03/21 11:15:24;;;;;;;1.60;1.50;;;24.40;42.00;;;;;;4958298;28;45294;-56
2022/03/21 11:17:51;;;;;;;1.50;1.40;;;24.40;42.00;;;;;;4973104;28;45176;-59
2022/03/21 11:20:16;;;;;;;1.58;1.48;;;24.40;42.00;;;;;;4960602;28;45349;-57
2022/03/21 11:22:43;;;;;;;1.52;1.42;;;24.40;42.00;;;;;;4950110;28;45352;-59
2022/03/21 11:25:16;;;;;;;1.73;1.63;;;24.40;41.90;;;;;;4947506;28;45185;-56
2022/03/21 11:28:16;;;;;;;1.67;1.40;;;24.50;41.80;;;;;;4979358;28;45157;-58
2022/03/21 11:31:00;;;;;;;1.83;1.70;;;24.50;41.40;;;;;;4980208;28;45589;-56
2022/03/21 11:33:38;;;;;;;1.67;1.20;;;24.50;41.50;;;;;;4982210;28;45210;-56
2022/03/21 11:36:08;;;;;;;1.42;1.33;;;24.50;41.50;;;;;;4961729;28;45059;-54
2022/03/21 11:38:36;;;;;;;1.80;1.50;;;24.50;41.70;;;;;;4982031;28;45589;-58
2022/03/21 11:41:18;;;;;;;1.50;1.40;;;24.50;41.70;;;;;;4964701;28;46296;-59
2022/03/21 11:43:45;;;;;;;4.50;1.30;;;24.60;41.60;;;;;;4965693;28;45275;-57
2022/03/21 11:46:29;;;;;;;1.42;1.33;;;24.50;41.70;;;;;;4978589;28;45219;-60
2022/03/21 11:48:56;;;;;;;3.35;2.72;;;24.60;41.30;;;;;;4958173;28;45396;-56
2022/03/21 11:51:23;;;;;;;5.65;3.75;;;24.60;38.60;;;;;;4981726;28;46194;-59
2022/03/21 11:53:49;;;;;;;7.18;4.35;;;24.40;36.60;;;;;;4981089;28;45232;-54
2022/03/21 11:56:38;;;;;;;6.40;4.53;;;24.20;34.20;;;;;;4980332;28;45489;-54
2022/03/21 11:59:04;;;;;;;6.95;4.18;;;24.00;32.70;;;;;;4974852;28;45191;-57
2022/03/21 12:01:30;;;;;;;4.20;3.80;;;23.80;33.70;;;;;;4962609;28;46185;-57
2022/03/21 12:04:15;;;;;;;4.55;3.90;;;23.70;34.20;;;;;;4981486;28;45775;-55
2022/03/21 12:06:40;;;;;;;5.40;3.42;;;23.70;35.00;;;;;;4964392;28;44985;-52
2022/03/21 12:09:10;;;;;;;3.63;3.22;;;23.70;35.80;;;;;;4981788;28;45137;-52
2022/03/21 12:11:39;;;;;;;4.40;3.45;;;23.70;35.70;;;;;;4960611;28;46798;-56
2022/03/21 12:14:20;;;;;;;4.45;3.20;;;23.60;35.90;;;;;;4978207;28;45064;-57
2022/03/21 12:17:12;;;;;;;4.97;3.15;;;23.60;35.20;;;;;;4980203;28;45497;-53
2022/03/21 12:22:30;;;;;;;4.70;3.83;;;23.50;35.00;;;;;;4982273;28;44975;-60
2022/03/21 12:24:58;;;;;;;4.13;3.33;;;23.40;35.20;;;;;;4982623;28;45183;-61
2022/03/21 12:27:39;;;;;;;6.30;3.55;;;23.30;35.90;;;;;;4980656;28;45431;-60
2022/03/21 12:30:20;;;;;;;4.25;3.38;;;23.30;35.50;;;;;;4980564;28;45032;-65
2022/03/21 12:32:48;;;;;;;;;;;23.20;35.70;;;;;;4978433;28;46064;-57
2022/03/21 12:35:32;;;;;;;5.10;3.28;;;23.10;35.70;;;;;;4984086;28;45224;-61
2022/03/21 12:38:17;;;;;;;5.65;3.55;;;23.10;36.40;;;;;;4981299;28;45147;-54
2022/03/21 12:40:46;;;;;;;4.93;2.97;;;23.10;36.60;;;;;;4980707;28;45098;-59
2022/03/21 12:43:12;;;;;;;5.47;3.13;;;23.00;37.30;;;;;;4963608;28;48008;-60
2022/03/21 12:45:37;;;;;;;4.32;3.50;;;23.00;37.60;;;;;;4981389;28;45164;-60
2022/03/21 12:48:05;;;;;;;3.95;2.80;;;22.90;37.70;;;;;;4981883;28;46169;-59
2022/03/21 12:50:32;;;;;;;4.65;3.15;;;22.90;37.90;;;;;;4981534;28;45219;-57
2022/03/21 12:53:05;;;;;;;4.60;3.22;;;22.80;38.10;;;;;;4979751;28;45279;-58
2022/03/21 12:55:31;;;;;;;4.50;3.15;;;22.80;38.20;;;;;;4964668;28;45146;-58
2022/03/21 12:58:04;;;;;;;5.78;3.40;;;22.70;38.40;;;;;;4964180;28;44786;-58
2022/03/21 13:00:31;;;;;;;3.95;2.65;;;22.70;38.40;;;;;;4979994;28;44992;-60
2022/03/21 13:03:02;;;;;;;3.65;2.97;;;22.70;38.70;;;;;;4981374;28;45326;-59
2022/03/21 13:11:25;;;;;;;4.00;2.78;;;22.50;38.90;;;;;;4968700;28;45119;-59
2022/03/21 13:13:55;;;;;;;3.67;2.65;;;22.50;39.30;;;;;;4980242;28;46388;-62
2022/03/21 13:16:26;;;;;;;3.63;2.80;;;22.50;39.50;;;;;;4979973;28;45160;-59
2022/03/21 13:18:53;;;;;;;3.03;2.50;;;22.40;39.40;;;;;;4980847;28;44695;-60
2022/03/21 13:21:19;;;;;;;4.20;2.80;;;22.40;39.70;;;;;;4980971;28;44813;-60
2022/03/21 13:23:46;;;;;;;4.35;2.63;;;22.40;39.80;;;;;;4979968;28;46202;-60
2022/03/21 13:26:22;;;;;;;4.13;3.00;;;22.30;39.80;;;;;;4981193;28;45372;-61
2022/03/21 13:28:48;;;;;;;5.30;2.88;;;22.30;39.90;;;;;;4960243;28;44626;-57
2022/03/21 13:31:18;;;;;;;3.10;2.78;;;22.20;40.00;;;;;;4980536;28;45484;-56
2022/03/21 13:33:54;;;;;;;3.03;2.72;;;22.20;40.10;;;;;;4965036;28;46075;-59
2022/03/21 13:36:26;;;;;;;3.97;2.80;;;22.20;40.20;;;;;;4964627;28;45455;-59
2022/03/21 13:39:16;;;;;;;4.10;2.85;;;22.10;40.40;;;;;;4981459;28;44738;-61
2022/03/21 13:42:05;;;;;;;3.78;3.17;;;22.10;40.40;;;;;;4979821;28;45082;-60
2022/03/21 13:44:31;;;;;;;3.63;2.55;;;22.10;40.60;;;;;;4980726;28;45163;-61
2022/03/21 13:47:06;;;;;;;3.40;2.78;;;22.10;40.80;;;;;;4981747;28;45454;-60
2022/03/21 13:49:49;;;;;;;4.28;3.10;;;22.00;40.80;;;;;;4980851;28;45504;-60
2022/03/21 13:52:35;;;;;;;3.03;2.42;;;22.00;40.90;;;;;;4978454;28;45004;-62
2022/03/21 13:55:00;;;;;;;3.00;2.55;;;21.90;41.00;;;;;;4963967;28;46981;-58
2022/03/21 13:57:27;;;;;;;3.55;2.88;;;21.90;41.10;;;;;;4979939;28;45375;-60
2022/03/21 14:00:10;;;;;;;3.42;2.60;;;21.90;41.20;;;;;;4978370;28;45374;-59
2022/03/21 14:02:43;;;;;;;3.10;2.72;;;21.90;41.30;;;;;;4991380;28;45148;-61
2022/03/21 14:05:12;;;;;;;;;;;21.90;41.40;;;;;;4964367;28;46287;-60
2022/03/21 14:07:38;;;;;;;2.72;2.42;;;21.80;41.50;;;;;;4981583;28;45066;-60
2022/03/21 14:10:14;;;;;;;2.78;2.47;;;21.80;41.60;;;;;;4980490;28;44725;-62
2022/03/21 14:12:46;;;;;;;3.67;2.70;;;21.80;41.60;;;;;;4959122;28;44787;-61
2022/03/21 14:15:11;;;;;;;3.33;2.47;;;21.80;41.70;;;;;;4962268;28;45442;-60
2022/03/21 14:17:38;;;;;;;3.03;2.70;;;21.80;41.80;;;;;;4980816;28;44952;-61
2022/03/21 14:20:05;;;;;;;4.57;3.08;;;21.70;41.90;;;;;;4982310;28;45218;-60
2022/03/21 14:22:31;;;;;;;3.10;2.63;;;21.70;41.90;;;;;;4963754;28;45188;-59
2022/03/21 14:24:56;;;;;;;4.65;3.17;;;21.60;42.00;;;;;;4982149;28;44855;-57
2022/03/21 14:27:22;;;;;;;4.90;2.75;;;21.60;42.10;;;;;;4977725;28;45521;-60
2022/03/21 14:29:47;;;;;;;4.25;3.00;;;21.60;42.20;;;;;;4982035;28;44707;-60
2022/03/21 14:32:13;;;;;;;9.63;2.47;;;21.60;42.30;;;;;;4980550;28;45208;-60
2022/03/21 14:34:38;;;;;;;2.97;2.70;;;21.60;42.30;;;;;;4981077;28;46219;-55
2022/03/21 14:37:04;;;;;;;2.90;2.20;;;21.50;42.40;;;;;;4980714;28;45418;-58
2022/03/21 14:39:30;;;;;;;3.13;2.60;;;21.50;43.00;;;;;;4979296;28;45332;-59
2022/03/21 14:41:55;;;;;;;4.35;3.25;;;21.50;42.50;;;;;;4979512;28;45285;-61
2022/03/21 14:44:23;;;;;;;3.42;2.83;;;21.50;42.60;;;;;;4979362;28;45851;-59
2022/03/21 14:46:50;;;;;;;2.72;2.30;;;21.50;42.60;;;;;;4979568;28;45304;-59
2022/03/21 14:49:15;;;;;;;3.35;2.95;;;21.50;42.70;;;;;;4965164;28;44709;-62
2022/03/21 14:51:41;;;;;;;4.70;3.22;;;21.40;42.70;;;;;;4962122;28;45290;-61
2022/03/21 14:54:06;;;;;;;3.42;2.95;;;21.40;42.70;;;;;;4961543;28;45568;-59
2022/03/21 14:56:32;;;;;;;3.08;2.58;;;21.40;42.80;;;;;;4979713;28;45243;-59
2022/03/21 14:58:58;;;;;;;3.13;2.70;;;21.40;42.90;;;;;;4980763;28;44682;-60
2022/03/21 15:01:24;;;;;;;;;;;21.40;42.90;;;;;;4974159;28;45193;-61
2022/03/21 15:03:50;;;;;;;3.30;2.65;;;21.40;43.20;;;;;;4963543;28;46682;-59
2022/03/21 15:06:15;;;;;;;3.85;2.53;;;21.30;43.00;;;;;;4979235;28;45201;-59
2022/03/21 15:08:41;;;;;;;3.88;2.45;;;21.30;43.00;;;;;;4978850;28;44880;-60
2022/03/21 15:11:07;;;;;;;4.00;2.50;;;21.30;43.10;;;;;;4979275;28;45478;-62
2022/03/21 15:13:33;;;;;;;4.72;2.83;;;21.30;43.10;;;;;;4959690;28;47410;-68
2022/03/21 15:15:59;;;;;;;3.80;2.72;;;21.30;43.20;;;;;;4976849;28;45195;-59
2022/03/21 15:18:25;;;;;;;4.25;2.88;;;21.30;43.30;;;;;;4978056;28;45164;-59
2022/03/21 15:20:51;;;;;;;3.90;2.90;;;21.20;43.30;;;;;;4970231;28;46152;-62
2022/03/21 15:23:16;;;;;;;3.65;2.53;;;21.20;43.30;;;;;;4952959;28;45827;-62
2022/03/21 15:25:42;;;;;;;3.13;2.45;;;21.20;43.40;;;;;;4975670;28;45625;-62
2022/03/21 15:28:10;;;;;;;3.20;2.78;;;21.20;43.50;;;;;;4939963;28;45283;-65
2022/03/21 15:30:37;;;;;;;3.20;2.05;;;21.20;43.50;;;;;;4974518;28;44798;-61
2022/03/21 15:33:02;;;;;;;2.92;2.50;;;21.20;43.50;;;;;;4975191;28;45995;-64
2022/03/21 15:35:28;;;;;;;3.08;2.60;;;21.20;43.60;;;;;;4976062;28;45163;-62
2022/03/21 15:43:22;;;;;;;3.75;2.75;;;21.10;43.80;;;;;;4947667;28;45916;-62
2022/03/21 15:45:48;;;;;;;2.90;2.58;;;21.10;43.80;;;;;;4957022;28;45547;-60
2022/03/21 15:48:13;;;;;;;2.47;2.17;;;21.10;43.80;;;;;;4976619;28;44871;-61
2022/03/21 15:50:39;;;;;;;2.60;2.33;;;21.10;43.90;;;;;;4975464;28;45254;-57
2022/03/21 15:53:05;;;;;;;2.97;2.67;;;21.10;44.00;;;;;;4957537;28;45441;-60
2022/03/21 15:55:34;;;;;;;8.30;2.40;;;21.10;43.90;;;;;;4976487;28;45217;-59
2022/03/21 15:58:00;;;;;;;2.33;2.10;;;21.00;44.00;;;;;;4955735;28;45246;-61
2022/03/21 16:00:26;;;;;;;2.70;2.30;;;21.00;44.10;;;;;;4956051;28;45446;-61
2022/03/21 16:02:53;;;;;;;3.38;2.60;;;21.00;44.00;;;;;;4975507;28;45603;-61
2022/03/21 16:05:20;;;;;;;2.65;2.30;;;21.00;44.10;;;;;;4977100;28;44986;-61
2022/03/21 16:07:46;;;;;;;3.70;2.85;;;21.00;44.10;;;;;;4974695;28;44691;-59
2022/03/21 16:10:12;;;;;;;2.58;2.30;;;21.00;44.10;;;;;;4979034;28;44667;-62
2022/03/21 16:12:38;;;;;;;3.72;2.58;;;21.00;44.20;;;;;;4957379;28;46094;-61
2022/03/21 16:15:05;;;;;;;3.53;2.42;;;21.00;44.20;;;;;;4962383;28;44648;-62
2022/03/21 16:17:31;;;;;;;4.28;2.80;;;20.90;44.20;;;;;;4979993;28;45318;-60
2022/03/21 16:19:56;;;;;;;3.15;2.55;;;20.90;44.30;;;;;;4977086;28;45469;-62
2022/03/21 16:22:22;;;;;;;2.88;2.35;;;20.90;44.30;;;;;;4979474;28;46454;-60
2022/03/21 16:24:48;;;;;;;2.40;2.20;;;20.90;44.40;;;;;;4980884;28;45212;-57
2022/03/21 16:27:13;;;;;;;2.70;2.33;;;20.90;44.40;;;;;;4980642;28;44702;-61
2022/03/21 16:29:43;;;;;;;4.85;2.50;;;20.80;44.40;;;;;;4982637;28;45634;-60
2022/03/21 16:32:09;;;;;;;2.25;2.00;;;20.80;44.50;;;;;;4972922;28;45323;-61
2022/03/21 16:34:35;;;;;;;3.28;2.58;;;20.80;44.50;;;;;;4979293;28;45400;-61
2022/03/21 16:37:02;;;;;;;2.80;2.40;;;20.80;44.60;;;;;;4980211;28;45168;-59
2022/03/21 16:39:30;;;;;;;2.88;2.47;;;20.80;44.60;;;;;;4979405;28;45381;-63
2022/03/21 16:41:56;;;;;;;3.95;2.88;;;20.70;44.60;;;;;;4960496;28;45681;-59
2022/03/21 16:44:22;;;;;;;3.47;2.72;;;20.70;44.60;;;;;;4978981;28;45391;-59
2022/03/21 16:46:48;;;;;;;3.05;2.45;;;20.70;44.70;;;;;;4976759;28;45778;-61
2022/03/21 16:49:13;;;;;;;2.58;2.38;;;20.70;44.70;;;;;;4979636;28;45137;-63
2022/03/21 16:51:39;;;;;;;2.50;2.30;;;20.70;44.70;;;;;;4961023;28;46116;-61
2022/03/21 16:54:04;;;;;;;2.92;2.30;;;20.70;44.80;;;;;;4940090;28;45441;-61
2022/03/21 16:56:30;;;;;;;4.38;2.67;;;20.70;44.80;;;;;;4979029;28;45208;-59
2022/03/21 16:58:56;;;;;;;2.97;2.67;;;20.70;44.80;;;;;;4961762;28;45068;-62
2022/03/21 17:01:22;;;;;;;2.97;2.40;;;20.60;44.80;;;;;;4976327;28;45874;-61
2022/03/21 17:03:48;;;;;;;3.58;2.88;;;20.60;44.90;;;;;;4960829;28;45425;-59
2022/03/21 17:06:14;;;;;;;3.03;2.50;;;20.60;44.90;;;;;;4978649;28;45056;-60
2022/03/21 17:08:40;;;;;;;3.42;2.80;;;20.60;44.90;;;;;;4944956;28;45432;-59
2022/03/21 17:11:06;;;;;;;3.08;2.58;;;20.60;45.00;;;;;;4976444;28;45139;-61
2022/03/21 17:13:31;;;;;;;3.58;2.90;;;20.60;45.00;;;;;;4977922;28;44929;-63
2022/03/21 17:15:57;;;;;;;3.03;2.65;;;20.50;45.00;;;;;;4976562;28;45255;-58
2022/03/21 17:23:42;;;;;;;3.05;2.58;;;20.50;45.10;;;;;;4977031;28;45024;-56
2022/03/21 17:26:09;;;;;;;2.97;2.67;;;20.50;45.20;;;;;;4956093;28;45252;-60